<?xml version="1.0" encoding="UTF-8" standalone="no" ?>
<gpx xmlns="http://www.topografix.com/GPX/1/1" xmlns:xsi="http://www.w3.org/2001/XMLSchema-instance" xsi:schemaLocation="http://www.topografix.com/GPX/1/1 http://www.topografix.com/GPX/1/1/gpx.xsd" version="1.1" creator="VisuGPX - https://www.visugpx.com">
  <metadata>
    <name>Etape en Corse </name>
    <desc><![CDATA[Etape 4 Plage O gradelle-Scandola
Etape 5 Carges- Sagone
Etape 6 Baie de Liscia]]></desc>
  </metadata>
  <wpt lat="43.22555" lon="6.44935">
    <ele>54</ele>
    <name><![CDATA[parking]]></name>
    <desc><![CDATA[16-MAI-15 9:26:59]]></desc>
    <cmt><![CDATA[16-MAI-15 9:26:59]]></cmt>
    <type><![CDATA[user]]></type>
  </wpt>
  <wpt lat="43.23505" lon="6.4006">
    <ele>423</ele>
    <name><![CDATA[parking02]]></name>
    <desc><![CDATA[16-MAI-15 12:19:33]]></desc>
    <cmt><![CDATA[16-MAI-15 12:19:33]]></cmt>
    <type><![CDATA[user]]></type>
  </wpt>
  <wpt lat="43.21304" lon="6.4631">
    <ele>42</ele>
    <name><![CDATA[piste]]></name>
    <desc><![CDATA[Chemin]]></desc>
    <cmt><![CDATA[Chemin]]></cmt>
    <type><![CDATA[user]]></type>
  </wpt>
  <trk>
    <name><![CDATA[Tracé 004]]></name>
    <trkseg>
      <trkpt lat="42.12321" lon="8.63077">
        <ele>5.63</ele>
        <time>2017-06-05T10:02:02Z</time>
      </trkpt>
      <trkpt lat="42.1232" lon="8.63079">
        <ele>5.59</ele>
        <time>2017-06-05T10:02:03Z</time>
      </trkpt>
      <trkpt lat="42.1232" lon="8.63083">
        <ele>5.75</ele>
        <time>2017-06-05T10:02:26Z</time>
      </trkpt>
      <trkpt lat="42.12319" lon="8.63083">
        <ele>5.54</ele>
        <time>2017-06-05T10:02:52Z</time>
      </trkpt>
      <trkpt lat="42.12319" lon="8.63085">
        <ele>4.87</ele>
        <time>2017-06-05T10:03:16Z</time>
      </trkpt>
      <trkpt lat="42.12319" lon="8.63085">
        <ele>3.84</ele>
        <time>2017-06-05T10:03:48Z</time>
      </trkpt>
      <trkpt lat="42.12318" lon="8.63087">
        <ele>3.59</ele>
        <time>2017-06-05T10:04:20Z</time>
      </trkpt>
      <trkpt lat="42.12317" lon="8.63085">
        <ele>3.17</ele>
        <time>2017-06-05T10:04:48Z</time>
      </trkpt>
      <trkpt lat="42.12317" lon="8.63081">
        <ele>2.69</ele>
        <time>2017-06-05T10:05:15Z</time>
      </trkpt>
      <trkpt lat="42.12315" lon="8.63082">
        <ele>2.25</ele>
        <time>2017-06-05T10:05:46Z</time>
      </trkpt>
      <trkpt lat="42.12311" lon="8.63074">
        <ele>1.96</ele>
        <time>2017-06-05T10:06:17Z</time>
      </trkpt>
      <trkpt lat="42.12309" lon="8.63071">
        <ele>1.8</ele>
        <time>2017-06-05T10:06:41Z</time>
      </trkpt>
      <trkpt lat="42.12308" lon="8.6307">
        <ele>1.54</ele>
        <time>2017-06-05T10:07:07Z</time>
      </trkpt>
      <trkpt lat="42.12309" lon="8.6307">
        <ele>1.31</ele>
        <time>2017-06-05T10:07:32Z</time>
      </trkpt>
      <trkpt lat="42.12308" lon="8.63068">
        <ele>1.22</ele>
        <time>2017-06-05T10:07:57Z</time>
      </trkpt>
      <trkpt lat="42.12308" lon="8.63069">
        <ele>0.95</ele>
        <time>2017-06-05T10:08:21Z</time>
      </trkpt>
      <trkpt lat="42.12309" lon="8.63071">
        <ele>0.79</ele>
        <time>2017-06-05T10:08:44Z</time>
      </trkpt>
      <trkpt lat="42.12309" lon="8.63072">
        <ele>0.68</ele>
        <time>2017-06-05T10:09:03Z</time>
      </trkpt>
      <trkpt lat="42.12308" lon="8.63073">
        <ele>0.62</ele>
        <time>2017-06-05T10:09:27Z</time>
      </trkpt>
      <trkpt lat="42.12308" lon="8.63072">
        <ele>0.29</ele>
        <time>2017-06-05T10:09:50Z</time>
      </trkpt>
      <trkpt lat="42.12307" lon="8.63072">
        <ele>0.47</ele>
        <time>2017-06-05T10:10:17Z</time>
      </trkpt>
      <trkpt lat="42.12308" lon="8.63072">
        <ele>0.43</ele>
        <time>2017-06-05T10:10:37Z</time>
      </trkpt>
      <trkpt lat="42.1231" lon="8.63071">
        <ele>0.1</ele>
        <time>2017-06-05T10:11:02Z</time>
      </trkpt>
      <trkpt lat="42.12309" lon="8.63073">
        <ele>0.39</ele>
        <time>2017-06-05T10:11:26Z</time>
      </trkpt>
      <trkpt lat="42.12309" lon="8.63072">
        <ele>0.22</ele>
        <time>2017-06-05T10:11:51Z</time>
      </trkpt>
      <trkpt lat="42.12306" lon="8.63075">
        <ele>0.25</ele>
        <time>2017-06-05T10:12:14Z</time>
      </trkpt>
      <trkpt lat="42.12306" lon="8.63075">
        <ele>0.49</ele>
        <time>2017-06-05T10:12:37Z</time>
      </trkpt>
      <trkpt lat="42.12306" lon="8.63076">
        <ele>0.58</ele>
        <time>2017-06-05T10:13:04Z</time>
      </trkpt>
      <trkpt lat="42.12307" lon="8.63075">
        <ele>0.43</ele>
        <time>2017-06-05T10:13:27Z</time>
      </trkpt>
      <trkpt lat="42.12306" lon="8.63076">
        <ele>0.56</ele>
        <time>2017-06-05T10:13:50Z</time>
      </trkpt>
      <trkpt lat="42.12306" lon="8.63077">
        <ele>0.57</ele>
        <time>2017-06-05T10:14:15Z</time>
      </trkpt>
      <trkpt lat="42.12304" lon="8.63077">
        <ele>1.02</ele>
        <time>2017-06-05T10:14:38Z</time>
      </trkpt>
      <trkpt lat="42.12303" lon="8.63076">
        <ele>0.94</ele>
        <time>2017-06-05T10:15:00Z</time>
      </trkpt>
      <trkpt lat="42.12303" lon="8.63077">
        <ele>1</ele>
        <time>2017-06-05T10:15:22Z</time>
      </trkpt>
      <trkpt lat="42.12305" lon="8.63075">
        <ele>1.06</ele>
        <time>2017-06-05T10:15:45Z</time>
      </trkpt>
      <trkpt lat="42.12307" lon="8.63075">
        <ele>1.11</ele>
        <time>2017-06-05T10:16:08Z</time>
      </trkpt>
      <trkpt lat="42.12306" lon="8.63076">
        <ele>1.31</ele>
        <time>2017-06-05T10:16:32Z</time>
      </trkpt>
      <trkpt lat="42.12305" lon="8.63077">
        <ele>1.2</ele>
        <time>2017-06-05T10:16:54Z</time>
      </trkpt>
      <trkpt lat="42.12306" lon="8.63077">
        <ele>1.46</ele>
        <time>2017-06-05T10:17:19Z</time>
      </trkpt>
      <trkpt lat="42.12306" lon="8.63077">
        <ele>1.53</ele>
        <time>2017-06-05T10:17:43Z</time>
      </trkpt>
      <trkpt lat="42.12306" lon="8.63075">
        <ele>1.6</ele>
        <time>2017-06-05T10:18:05Z</time>
      </trkpt>
      <trkpt lat="42.12306" lon="8.63077">
        <ele>1.47</ele>
        <time>2017-06-05T10:18:26Z</time>
      </trkpt>
      <trkpt lat="42.12305" lon="8.63075">
        <ele>1.84</ele>
        <time>2017-06-05T10:18:55Z</time>
      </trkpt>
      <trkpt lat="42.12306" lon="8.63077">
        <ele>1.95</ele>
        <time>2017-06-05T10:19:21Z</time>
      </trkpt>
      <trkpt lat="42.12306" lon="8.63077">
        <ele>1.97</ele>
        <time>2017-06-05T10:19:48Z</time>
      </trkpt>
      <trkpt lat="42.12307" lon="8.63082">
        <ele>2.03</ele>
        <time>2017-06-05T10:20:20Z</time>
      </trkpt>
      <trkpt lat="42.12308" lon="8.63082">
        <ele>2.19</ele>
        <time>2017-06-05T10:20:52Z</time>
      </trkpt>
      <trkpt lat="42.12309" lon="8.63084">
        <ele>2.43</ele>
        <time>2017-06-05T10:21:25Z</time>
      </trkpt>
      <trkpt lat="42.12311" lon="8.63084">
        <ele>2.56</ele>
        <time>2017-06-05T10:21:59Z</time>
      </trkpt>
      <trkpt lat="42.1231" lon="8.63083">
        <ele>2.6</ele>
        <time>2017-06-05T10:22:29Z</time>
      </trkpt>
      <trkpt lat="42.12309" lon="8.63083">
        <ele>2.47</ele>
        <time>2017-06-05T10:23:02Z</time>
      </trkpt>
      <trkpt lat="42.12309" lon="8.63084">
        <ele>2.61</ele>
        <time>2017-06-05T10:23:36Z</time>
      </trkpt>
      <trkpt lat="42.12308" lon="8.63079">
        <ele>2.56</ele>
        <time>2017-06-05T10:24:05Z</time>
      </trkpt>
      <trkpt lat="42.12308" lon="8.63076">
        <ele>2.5</ele>
        <time>2017-06-05T10:24:32Z</time>
      </trkpt>
      <trkpt lat="42.12308" lon="8.63078">
        <ele>2.36</ele>
        <time>2017-06-05T10:25:00Z</time>
      </trkpt>
      <trkpt lat="42.12307" lon="8.63075">
        <ele>2.29</ele>
        <time>2017-06-05T10:25:28Z</time>
      </trkpt>
      <trkpt lat="42.12307" lon="8.63075">
        <ele>2.31</ele>
        <time>2017-06-05T10:25:54Z</time>
      </trkpt>
      <trkpt lat="42.12307" lon="8.63077">
        <ele>2.22</ele>
        <time>2017-06-05T10:26:19Z</time>
      </trkpt>
      <trkpt lat="42.12307" lon="8.63076">
        <ele>2.34</ele>
        <time>2017-06-05T10:26:48Z</time>
      </trkpt>
      <trkpt lat="42.12307" lon="8.63074">
        <ele>2.3</ele>
        <time>2017-06-05T10:27:17Z</time>
      </trkpt>
      <trkpt lat="42.12308" lon="8.63075">
        <ele>2.51</ele>
        <time>2017-06-05T10:27:47Z</time>
      </trkpt>
      <trkpt lat="42.12309" lon="8.63076">
        <ele>2.68</ele>
        <time>2017-06-05T10:28:17Z</time>
      </trkpt>
      <trkpt lat="42.12311" lon="8.63077">
        <ele>2.44</ele>
        <time>2017-06-05T10:28:43Z</time>
      </trkpt>
      <trkpt lat="42.12311" lon="8.63078">
        <ele>2.87</ele>
        <time>2017-06-05T10:29:18Z</time>
      </trkpt>
      <trkpt lat="42.12311" lon="8.63076">
        <ele>3.05</ele>
        <time>2017-06-05T10:29:49Z</time>
      </trkpt>
      <trkpt lat="42.12309" lon="8.63076">
        <ele>3.27</ele>
        <time>2017-06-05T10:30:20Z</time>
      </trkpt>
      <trkpt lat="42.12309" lon="8.63074">
        <ele>3.18</ele>
        <time>2017-06-05T10:30:49Z</time>
      </trkpt>
      <trkpt lat="42.1231" lon="8.63074">
        <ele>3.43</ele>
        <time>2017-06-05T10:31:17Z</time>
      </trkpt>
      <trkpt lat="42.12309" lon="8.63075">
        <ele>3.65</ele>
        <time>2017-06-05T10:31:48Z</time>
      </trkpt>
      <trkpt lat="42.12309" lon="8.63076">
        <ele>3.44</ele>
        <time>2017-06-05T10:32:18Z</time>
      </trkpt>
      <trkpt lat="42.12309" lon="8.63078">
        <ele>3.51</ele>
        <time>2017-06-05T10:32:45Z</time>
      </trkpt>
      <trkpt lat="42.1231" lon="8.63078">
        <ele>3.44</ele>
        <time>2017-06-05T10:33:18Z</time>
      </trkpt>
      <trkpt lat="42.12308" lon="8.63077">
        <ele>3.33</ele>
        <time>2017-06-05T10:33:46Z</time>
      </trkpt>
      <trkpt lat="42.1231" lon="8.63076">
        <ele>3.59</ele>
        <time>2017-06-05T10:34:16Z</time>
      </trkpt>
      <trkpt lat="42.1231" lon="8.63076">
        <ele>3.58</ele>
        <time>2017-06-05T10:34:49Z</time>
      </trkpt>
      <trkpt lat="42.12311" lon="8.63077">
        <ele>3.49</ele>
        <time>2017-06-05T10:35:19Z</time>
      </trkpt>
      <trkpt lat="42.1231" lon="8.63077">
        <ele>3.66</ele>
        <time>2017-06-05T10:35:50Z</time>
      </trkpt>
      <trkpt lat="42.12309" lon="8.63078">
        <ele>3.48</ele>
        <time>2017-06-05T10:36:23Z</time>
      </trkpt>
      <trkpt lat="42.1231" lon="8.63076">
        <ele>3.52</ele>
        <time>2017-06-05T10:36:54Z</time>
      </trkpt>
      <trkpt lat="42.1231" lon="8.63077">
        <ele>3.47</ele>
        <time>2017-06-05T10:37:26Z</time>
      </trkpt>
      <trkpt lat="42.12309" lon="8.63075">
        <ele>3.84</ele>
        <time>2017-06-05T10:37:59Z</time>
      </trkpt>
      <trkpt lat="42.1231" lon="8.63076">
        <ele>4.03</ele>
        <time>2017-06-05T10:38:30Z</time>
      </trkpt>
      <trkpt lat="42.12311" lon="8.63078">
        <ele>4.17</ele>
        <time>2017-06-05T10:39:02Z</time>
      </trkpt>
      <trkpt lat="42.1231" lon="8.63078">
        <ele>4.21</ele>
        <time>2017-06-05T10:39:32Z</time>
      </trkpt>
      <trkpt lat="42.1231" lon="8.63076">
        <ele>4.22</ele>
        <time>2017-06-05T10:40:02Z</time>
      </trkpt>
      <trkpt lat="42.1231" lon="8.63077">
        <ele>4.71</ele>
        <time>2017-06-05T10:40:37Z</time>
      </trkpt>
      <trkpt lat="42.12309" lon="8.63077">
        <ele>4.79</ele>
        <time>2017-06-05T10:41:08Z</time>
      </trkpt>
      <trkpt lat="42.12308" lon="8.63076">
        <ele>4.48</ele>
        <time>2017-06-05T10:41:37Z</time>
      </trkpt>
      <trkpt lat="42.12309" lon="8.63077">
        <ele>4.48</ele>
        <time>2017-06-05T10:42:05Z</time>
      </trkpt>
      <trkpt lat="42.12309" lon="8.63077">
        <ele>4.66</ele>
        <time>2017-06-05T10:42:36Z</time>
      </trkpt>
      <trkpt lat="42.12307" lon="8.63077">
        <ele>4.85</ele>
        <time>2017-06-05T10:43:05Z</time>
      </trkpt>
      <trkpt lat="42.12309" lon="8.63077">
        <ele>4.87</ele>
        <time>2017-06-05T10:43:37Z</time>
      </trkpt>
      <trkpt lat="42.12311" lon="8.63077">
        <ele>5.43</ele>
        <time>2017-06-05T10:44:00Z</time>
      </trkpt>
      <trkpt lat="42.12309" lon="8.63076">
        <ele>4.95</ele>
        <time>2017-06-05T10:44:22Z</time>
      </trkpt>
      <trkpt lat="42.1231" lon="8.63077">
        <ele>4.91</ele>
        <time>2017-06-05T10:44:51Z</time>
      </trkpt>
      <trkpt lat="42.12311" lon="8.63078">
        <ele>4.51</ele>
        <time>2017-06-05T10:45:24Z</time>
      </trkpt>
      <trkpt lat="42.1231" lon="8.63079">
        <ele>4.56</ele>
        <time>2017-06-05T10:45:57Z</time>
      </trkpt>
      <trkpt lat="42.12309" lon="8.63079">
        <ele>4.64</ele>
        <time>2017-06-05T10:46:40Z</time>
      </trkpt>
      <trkpt lat="42.1231" lon="8.63079">
        <ele>4.49</ele>
        <time>2017-06-05T10:47:23Z</time>
      </trkpt>
      <trkpt lat="42.12308" lon="8.6308">
        <ele>5</ele>
        <time>2017-06-05T10:48:13Z</time>
      </trkpt>
      <trkpt lat="42.1231" lon="8.63079">
        <ele>5.32</ele>
        <time>2017-06-05T10:48:35Z</time>
      </trkpt>
      <trkpt lat="42.12309" lon="8.63075">
        <ele>5.07</ele>
        <time>2017-06-05T10:48:58Z</time>
      </trkpt>
      <trkpt lat="42.12313" lon="8.63075">
        <ele>5.17</ele>
        <time>2017-06-05T10:49:21Z</time>
      </trkpt>
      <trkpt lat="42.12317" lon="8.63061">
        <ele>5.46</ele>
        <time>2017-06-05T10:49:40Z</time>
      </trkpt>
      <trkpt lat="42.12322" lon="8.63042">
        <ele>5.29</ele>
        <time>2017-06-05T10:50:05Z</time>
      </trkpt>
      <trkpt lat="42.12326" lon="8.63034">
        <ele>5.25</ele>
        <time>2017-06-05T10:50:35Z</time>
      </trkpt>
      <trkpt lat="42.12317" lon="8.63057">
        <ele>5.06</ele>
        <time>2017-06-05T10:50:54Z</time>
      </trkpt>
      <trkpt lat="42.12313" lon="8.63065">
        <ele>5.29</ele>
        <time>2017-06-05T10:51:13Z</time>
      </trkpt>
      <trkpt lat="42.12305" lon="8.63076">
        <ele>4.7</ele>
        <time>2017-06-05T10:51:35Z</time>
      </trkpt>
      <trkpt lat="42.12302" lon="8.63078">
        <ele>4.26</ele>
        <time>2017-06-05T10:51:57Z</time>
      </trkpt>
      <trkpt lat="42.12297" lon="8.6308">
        <ele>4.15</ele>
        <time>2017-06-05T10:52:15Z</time>
      </trkpt>
      <trkpt lat="42.12296" lon="8.6308">
        <ele>4</ele>
        <time>2017-06-05T10:52:36Z</time>
      </trkpt>
      <trkpt lat="42.12298" lon="8.63085">
        <ele>4.05</ele>
        <time>2017-06-05T10:52:57Z</time>
      </trkpt>
      <trkpt lat="42.12309" lon="8.6308">
        <ele>4.49</ele>
        <time>2017-06-05T10:53:16Z</time>
      </trkpt>
      <trkpt lat="42.12313" lon="8.63078">
        <ele>4.83</ele>
        <time>2017-06-05T10:53:36Z</time>
      </trkpt>
      <trkpt lat="42.12306" lon="8.63075">
        <ele>4.54</ele>
        <time>2017-06-05T10:53:53Z</time>
      </trkpt>
      <trkpt lat="42.123" lon="8.63073">
        <ele>4.07</ele>
        <time>2017-06-05T10:54:15Z</time>
      </trkpt>
      <trkpt lat="42.12294" lon="8.63071">
        <ele>3.64</ele>
        <time>2017-06-05T10:54:35Z</time>
      </trkpt>
      <trkpt lat="42.12294" lon="8.63068">
        <ele>3.73</ele>
        <time>2017-06-05T10:54:55Z</time>
      </trkpt>
      <trkpt lat="42.12294" lon="8.63068">
        <ele>3.48</ele>
        <time>2017-06-05T10:55:12Z</time>
      </trkpt>
      <trkpt lat="42.12288" lon="8.63068">
        <ele>3.22</ele>
        <time>2017-06-05T10:55:34Z</time>
      </trkpt>
      <trkpt lat="42.12281" lon="8.63058">
        <ele>3.16</ele>
        <time>2017-06-05T10:55:58Z</time>
      </trkpt>
      <trkpt lat="42.12277" lon="8.6305">
        <ele>3.34</ele>
        <time>2017-06-05T10:56:10Z</time>
      </trkpt>
      <trkpt lat="42.12262" lon="8.63029">
        <ele>3.46</ele>
        <time>2017-06-05T10:56:25Z</time>
      </trkpt>
      <trkpt lat="42.12247" lon="8.63006">
        <ele>3.46</ele>
        <time>2017-06-05T10:56:38Z</time>
      </trkpt>
      <trkpt lat="42.12233" lon="8.62984">
        <ele>3.14</ele>
        <time>2017-06-05T10:56:50Z</time>
      </trkpt>
      <trkpt lat="42.1223" lon="8.62979">
        <ele>3.05</ele>
        <time>2017-06-05T10:56:53Z</time>
      </trkpt>
      <trkpt lat="42.12219" lon="8.62945">
        <ele>3.3</ele>
        <time>2017-06-05T10:57:08Z</time>
      </trkpt>
      <trkpt lat="42.1221" lon="8.6291">
        <ele>3.33</ele>
        <time>2017-06-05T10:57:22Z</time>
      </trkpt>
      <trkpt lat="42.12206" lon="8.62872">
        <ele>3.13</ele>
        <time>2017-06-05T10:57:37Z</time>
      </trkpt>
      <trkpt lat="42.12205" lon="8.62835">
        <ele>2.98</ele>
        <time>2017-06-05T10:57:50Z</time>
      </trkpt>
      <trkpt lat="42.12199" lon="8.62792">
        <ele>3.13</ele>
        <time>2017-06-05T10:58:06Z</time>
      </trkpt>
      <trkpt lat="42.12195" lon="8.62754">
        <ele>2.78</ele>
        <time>2017-06-05T10:58:20Z</time>
      </trkpt>
      <trkpt lat="42.12194" lon="8.62714">
        <ele>3.15</ele>
        <time>2017-06-05T10:58:34Z</time>
      </trkpt>
      <trkpt lat="42.12192" lon="8.62673">
        <ele>3.04</ele>
        <time>2017-06-05T10:58:49Z</time>
      </trkpt>
      <trkpt lat="42.12189" lon="8.62631">
        <ele>3</ele>
        <time>2017-06-05T10:59:04Z</time>
      </trkpt>
      <trkpt lat="42.12188" lon="8.62587">
        <ele>2.8</ele>
        <time>2017-06-05T10:59:20Z</time>
      </trkpt>
      <trkpt lat="42.12182" lon="8.62549">
        <ele>2.8</ele>
        <time>2017-06-05T10:59:35Z</time>
      </trkpt>
      <trkpt lat="42.1218" lon="8.62505">
        <ele>2.61</ele>
        <time>2017-06-05T10:59:52Z</time>
      </trkpt>
      <trkpt lat="42.1218" lon="8.62465">
        <ele>2.44</ele>
        <time>2017-06-05T11:00:07Z</time>
      </trkpt>
      <trkpt lat="42.1218" lon="8.62424">
        <ele>2.74</ele>
        <time>2017-06-05T11:00:22Z</time>
      </trkpt>
      <trkpt lat="42.12177" lon="8.62384">
        <ele>2.81</ele>
        <time>2017-06-05T11:00:37Z</time>
      </trkpt>
      <trkpt lat="42.12182" lon="8.62356">
        <ele>2.53</ele>
        <time>2017-06-05T11:00:50Z</time>
      </trkpt>
      <trkpt lat="42.1219" lon="8.62323">
        <ele>2.73</ele>
        <time>2017-06-05T11:01:05Z</time>
      </trkpt>
      <trkpt lat="42.12198" lon="8.62289">
        <ele>2.6</ele>
        <time>2017-06-05T11:01:19Z</time>
      </trkpt>
      <trkpt lat="42.122" lon="8.62248">
        <ele>2.46</ele>
        <time>2017-06-05T11:01:35Z</time>
      </trkpt>
      <trkpt lat="42.12207" lon="8.62218">
        <ele>2.35</ele>
        <time>2017-06-05T11:01:48Z</time>
      </trkpt>
      <trkpt lat="42.12216" lon="8.62196">
        <ele>2.35</ele>
        <time>2017-06-05T11:02:01Z</time>
      </trkpt>
      <trkpt lat="42.12225" lon="8.62162">
        <ele>2.22</ele>
        <time>2017-06-05T11:02:15Z</time>
      </trkpt>
      <trkpt lat="42.12231" lon="8.62131">
        <ele>2.12</ele>
        <time>2017-06-05T11:02:28Z</time>
      </trkpt>
      <trkpt lat="42.12236" lon="8.62092">
        <ele>2.05</ele>
        <time>2017-06-05T11:02:43Z</time>
      </trkpt>
      <trkpt lat="42.12245" lon="8.6206">
        <ele>1.82</ele>
        <time>2017-06-05T11:02:56Z</time>
      </trkpt>
      <trkpt lat="42.12256" lon="8.62023">
        <ele>1.81</ele>
        <time>2017-06-05T11:03:11Z</time>
      </trkpt>
      <trkpt lat="42.1226" lon="8.6199">
        <ele>1.91</ele>
        <time>2017-06-05T11:03:26Z</time>
      </trkpt>
      <trkpt lat="42.12272" lon="8.61961">
        <ele>1.95</ele>
        <time>2017-06-05T11:03:39Z</time>
      </trkpt>
      <trkpt lat="42.12282" lon="8.61928">
        <ele>1.81</ele>
        <time>2017-06-05T11:03:52Z</time>
      </trkpt>
      <trkpt lat="42.12295" lon="8.61891">
        <ele>1.66</ele>
        <time>2017-06-05T11:04:07Z</time>
      </trkpt>
      <trkpt lat="42.12311" lon="8.61861">
        <ele>1.48</ele>
        <time>2017-06-05T11:04:22Z</time>
      </trkpt>
      <trkpt lat="42.12327" lon="8.61827">
        <ele>1.19</ele>
        <time>2017-06-05T11:04:37Z</time>
      </trkpt>
      <trkpt lat="42.12341" lon="8.61797">
        <ele>1.16</ele>
        <time>2017-06-05T11:04:50Z</time>
      </trkpt>
      <trkpt lat="42.12352" lon="8.61769">
        <ele>1.11</ele>
        <time>2017-06-05T11:05:02Z</time>
      </trkpt>
      <trkpt lat="42.12369" lon="8.61735">
        <ele>1.07</ele>
        <time>2017-06-05T11:05:16Z</time>
      </trkpt>
      <trkpt lat="42.12384" lon="8.61704">
        <ele>0.97</ele>
        <time>2017-06-05T11:05:30Z</time>
      </trkpt>
      <trkpt lat="42.12398" lon="8.61667">
        <ele>0.89</ele>
        <time>2017-06-05T11:05:45Z</time>
      </trkpt>
      <trkpt lat="42.1241" lon="8.61639">
        <ele>0.78</ele>
        <time>2017-06-05T11:05:58Z</time>
      </trkpt>
      <trkpt lat="42.12414" lon="8.61629">
        <ele>0.78</ele>
        <time>2017-06-05T11:06:03Z</time>
      </trkpt>
      <trkpt lat="42.12423" lon="8.61609">
        <ele>0.81</ele>
        <time>2017-06-05T11:06:11Z</time>
      </trkpt>
      <trkpt lat="42.12436" lon="8.61578">
        <ele>0.73</ele>
        <time>2017-06-05T11:06:24Z</time>
      </trkpt>
      <trkpt lat="42.12448" lon="8.61546">
        <ele>0.83</ele>
        <time>2017-06-05T11:06:36Z</time>
      </trkpt>
      <trkpt lat="42.12458" lon="8.61523">
        <ele>0.79</ele>
        <time>2017-06-05T11:06:45Z</time>
      </trkpt>
      <trkpt lat="42.12479" lon="8.61488">
        <ele>0.63</ele>
        <time>2017-06-05T11:07:01Z</time>
      </trkpt>
      <trkpt lat="42.12493" lon="8.6146">
        <ele>0.83</ele>
        <time>2017-06-05T11:07:15Z</time>
      </trkpt>
      <trkpt lat="42.12506" lon="8.61429">
        <ele>0.73</ele>
        <time>2017-06-05T11:07:29Z</time>
      </trkpt>
      <trkpt lat="42.12521" lon="8.61399">
        <ele>0.72</ele>
        <time>2017-06-05T11:07:44Z</time>
      </trkpt>
      <trkpt lat="42.12539" lon="8.61365">
        <ele>0.75</ele>
        <time>2017-06-05T11:07:59Z</time>
      </trkpt>
      <trkpt lat="42.12557" lon="8.61332">
        <ele>0.48</ele>
        <time>2017-06-05T11:08:13Z</time>
      </trkpt>
      <trkpt lat="42.12558" lon="8.6133">
        <ele>0.46</ele>
        <time>2017-06-05T11:08:14Z</time>
      </trkpt>
      <trkpt lat="42.12574" lon="8.61293">
        <ele>0.56</ele>
        <time>2017-06-05T11:08:31Z</time>
      </trkpt>
      <trkpt lat="42.1259" lon="8.61262">
        <ele>0.5</ele>
        <time>2017-06-05T11:08:44Z</time>
      </trkpt>
      <trkpt lat="42.12606" lon="8.61229">
        <ele>0.58</ele>
        <time>2017-06-05T11:08:59Z</time>
      </trkpt>
      <trkpt lat="42.12619" lon="8.61205">
        <ele>0.56</ele>
        <time>2017-06-05T11:09:11Z</time>
      </trkpt>
      <trkpt lat="42.12636" lon="8.61174">
        <ele>0.41</ele>
        <time>2017-06-05T11:09:26Z</time>
      </trkpt>
      <trkpt lat="42.12658" lon="8.61145">
        <ele>0.55</ele>
        <time>2017-06-05T11:09:41Z</time>
      </trkpt>
      <trkpt lat="42.12672" lon="8.6112">
        <ele>0.78</ele>
        <time>2017-06-05T11:09:52Z</time>
      </trkpt>
      <trkpt lat="42.12688" lon="8.61091">
        <ele>0.94</ele>
        <time>2017-06-05T11:10:05Z</time>
      </trkpt>
      <trkpt lat="42.127" lon="8.61064">
        <ele>0.8</ele>
        <time>2017-06-05T11:10:16Z</time>
      </trkpt>
      <trkpt lat="42.12715" lon="8.61034">
        <ele>0.96</ele>
        <time>2017-06-05T11:10:29Z</time>
      </trkpt>
      <trkpt lat="42.12735" lon="8.60996">
        <ele>0.83</ele>
        <time>2017-06-05T11:10:45Z</time>
      </trkpt>
      <trkpt lat="42.12752" lon="8.60964">
        <ele>1.17</ele>
        <time>2017-06-05T11:10:59Z</time>
      </trkpt>
      <trkpt lat="42.12768" lon="8.60932">
        <ele>1.19</ele>
        <time>2017-06-05T11:11:12Z</time>
      </trkpt>
      <trkpt lat="42.12783" lon="8.60893">
        <ele>1.02</ele>
        <time>2017-06-05T11:11:28Z</time>
      </trkpt>
      <trkpt lat="42.12802" lon="8.60855">
        <ele>0.83</ele>
        <time>2017-06-05T11:11:45Z</time>
      </trkpt>
      <trkpt lat="42.1282" lon="8.60817">
        <ele>1.2</ele>
        <time>2017-06-05T11:12:01Z</time>
      </trkpt>
      <trkpt lat="42.12836" lon="8.60777">
        <ele>1.24</ele>
        <time>2017-06-05T11:12:16Z</time>
      </trkpt>
      <trkpt lat="42.12855" lon="8.60745">
        <ele>1.27</ele>
        <time>2017-06-05T11:12:30Z</time>
      </trkpt>
      <trkpt lat="42.12869" lon="8.60706">
        <ele>1.24</ele>
        <time>2017-06-05T11:12:45Z</time>
      </trkpt>
      <trkpt lat="42.12885" lon="8.60674">
        <ele>0.98</ele>
        <time>2017-06-05T11:12:58Z</time>
      </trkpt>
      <trkpt lat="42.12897" lon="8.60646">
        <ele>0.98</ele>
        <time>2017-06-05T11:13:10Z</time>
      </trkpt>
      <trkpt lat="42.12912" lon="8.60608">
        <ele>1.12</ele>
        <time>2017-06-05T11:13:24Z</time>
      </trkpt>
      <trkpt lat="42.12928" lon="8.60571">
        <ele>0.97</ele>
        <time>2017-06-05T11:13:38Z</time>
      </trkpt>
      <trkpt lat="42.1294" lon="8.60538">
        <ele>0.93</ele>
        <time>2017-06-05T11:13:52Z</time>
      </trkpt>
      <trkpt lat="42.12947" lon="8.60502">
        <ele>1.04</ele>
        <time>2017-06-05T11:14:05Z</time>
      </trkpt>
      <trkpt lat="42.12965" lon="8.60459">
        <ele>0.94</ele>
        <time>2017-06-05T11:14:20Z</time>
      </trkpt>
      <trkpt lat="42.12975" lon="8.60418">
        <ele>0.88</ele>
        <time>2017-06-05T11:14:33Z</time>
      </trkpt>
      <trkpt lat="42.12986" lon="8.60378">
        <ele>0.75</ele>
        <time>2017-06-05T11:14:48Z</time>
      </trkpt>
      <trkpt lat="42.12996" lon="8.60346">
        <ele>0.79</ele>
        <time>2017-06-05T11:15:04Z</time>
      </trkpt>
      <trkpt lat="42.13006" lon="8.60314">
        <ele>0.77</ele>
        <time>2017-06-05T11:15:17Z</time>
      </trkpt>
      <trkpt lat="42.13013" lon="8.60283">
        <ele>0.74</ele>
        <time>2017-06-05T11:15:29Z</time>
      </trkpt>
      <trkpt lat="42.13029" lon="8.60239">
        <ele>0.44</ele>
        <time>2017-06-05T11:15:45Z</time>
      </trkpt>
      <trkpt lat="42.1305" lon="8.60205">
        <ele>0.36</ele>
        <time>2017-06-05T11:15:59Z</time>
      </trkpt>
      <trkpt lat="42.13066" lon="8.60175">
        <ele>0.21</ele>
        <time>2017-06-05T11:16:12Z</time>
      </trkpt>
      <trkpt lat="42.13074" lon="8.60152">
        <ele>0.07</ele>
        <time>2017-06-05T11:16:21Z</time>
      </trkpt>
      <trkpt lat="42.13084" lon="8.60113">
        <ele>0.03</ele>
        <time>2017-06-05T11:16:35Z</time>
      </trkpt>
      <trkpt lat="42.131" lon="8.60076">
        <ele>0.23</ele>
        <time>2017-06-05T11:16:51Z</time>
      </trkpt>
      <trkpt lat="42.13112" lon="8.60047">
        <ele>0.12</ele>
        <time>2017-06-05T11:17:04Z</time>
      </trkpt>
      <trkpt lat="42.13122" lon="8.60017">
        <ele>-0.06</ele>
        <time>2017-06-05T11:17:19Z</time>
      </trkpt>
      <trkpt lat="42.1313" lon="8.59993">
        <ele>-0.04</ele>
        <time>2017-06-05T11:17:33Z</time>
      </trkpt>
      <trkpt lat="42.13139" lon="8.59968">
        <ele>-0.21</ele>
        <time>2017-06-05T11:17:47Z</time>
      </trkpt>
      <trkpt lat="42.13152" lon="8.5994">
        <ele>-0.37</ele>
        <time>2017-06-05T11:18:03Z</time>
      </trkpt>
      <trkpt lat="42.13163" lon="8.59913">
        <ele>-0.42</ele>
        <time>2017-06-05T11:18:18Z</time>
      </trkpt>
      <trkpt lat="42.13163" lon="8.59911">
        <ele>-0.4</ele>
        <time>2017-06-05T11:18:19Z</time>
      </trkpt>
      <trkpt lat="42.13166" lon="8.59897">
        <ele>-0.28</ele>
        <time>2017-06-05T11:18:25Z</time>
      </trkpt>
      <trkpt lat="42.1317" lon="8.59868">
        <ele>-0.11</ele>
        <time>2017-06-05T11:18:40Z</time>
      </trkpt>
      <trkpt lat="42.1317" lon="8.59858">
        <ele>-0.27</ele>
        <time>2017-06-05T11:18:46Z</time>
      </trkpt>
      <trkpt lat="42.13178" lon="8.59833">
        <ele>-0.41</ele>
        <time>2017-06-05T11:19:02Z</time>
      </trkpt>
      <trkpt lat="42.13184" lon="8.59817">
        <ele>-0.71</ele>
        <time>2017-06-05T11:19:17Z</time>
      </trkpt>
      <trkpt lat="42.13188" lon="8.59796">
        <ele>-0.55</ele>
        <time>2017-06-05T11:19:35Z</time>
      </trkpt>
      <trkpt lat="42.13189" lon="8.5978">
        <ele>-0.48</ele>
        <time>2017-06-05T11:19:50Z</time>
      </trkpt>
      <trkpt lat="42.13188" lon="8.59775">
        <ele>-0.48</ele>
        <time>2017-06-05T11:20:12Z</time>
      </trkpt>
      <trkpt lat="42.13189" lon="8.59772">
        <ele>-0.19</ele>
        <time>2017-06-05T11:20:30Z</time>
      </trkpt>
      <trkpt lat="42.13191" lon="8.59768">
        <ele>0.03</ele>
        <time>2017-06-05T11:20:49Z</time>
      </trkpt>
      <trkpt lat="42.13192" lon="8.59772">
        <ele>-0.41</ele>
        <time>2017-06-05T11:21:08Z</time>
      </trkpt>
      <trkpt lat="42.13193" lon="8.59772">
        <ele>-0.63</ele>
        <time>2017-06-05T11:21:36Z</time>
      </trkpt>
      <trkpt lat="42.13193" lon="8.59775">
        <ele>-0.3</ele>
        <time>2017-06-05T11:22:09Z</time>
      </trkpt>
      <trkpt lat="42.13194" lon="8.59777">
        <ele>-0.24</ele>
        <time>2017-06-05T11:22:30Z</time>
      </trkpt>
      <trkpt lat="42.132" lon="8.59777">
        <ele>-0.26</ele>
        <time>2017-06-05T11:22:55Z</time>
      </trkpt>
      <trkpt lat="42.13204" lon="8.5977">
        <ele>0.85</ele>
        <time>2017-06-05T11:23:19Z</time>
      </trkpt>
      <trkpt lat="42.13191" lon="8.59754">
        <ele>1.48</ele>
        <time>2017-06-05T11:23:42Z</time>
      </trkpt>
      <trkpt lat="42.1318" lon="8.59747">
        <ele>1</ele>
        <time>2017-06-05T11:24:04Z</time>
      </trkpt>
      <trkpt lat="42.13175" lon="8.59752">
        <ele>0.69</ele>
        <time>2017-06-05T11:24:26Z</time>
      </trkpt>
      <trkpt lat="42.13175" lon="8.59758">
        <ele>0.63</ele>
        <time>2017-06-05T11:24:37Z</time>
      </trkpt>
      <trkpt lat="42.13176" lon="8.59759">
        <ele>-0.4</ele>
        <time>2017-06-05T11:25:02Z</time>
      </trkpt>
      <trkpt lat="42.13176" lon="8.59758">
        <ele>-1.03</ele>
        <time>2017-06-05T11:29:29Z</time>
      </trkpt>
      <trkpt lat="42.13176" lon="8.59759">
        <ele>-11.04</ele>
        <time>2017-06-05T11:30:09Z</time>
      </trkpt>
      <trkpt lat="42.13176" lon="8.5976">
        <ele>-11.04</ele>
        <time>2017-06-05T11:30:10Z</time>
      </trkpt>
    </trkseg>
  </trk>
</gpx>